sensor_id;sensor_type;location;lat;lon;timestamp;P1;durP1;ratioP1;P2;durP2;ratioP2
13847;SDS011;6994;49.752;6.094;2022-11-20T00:00:39;6.80;;;4.93;;
13847;SDS011;6994;49.752;6.094;2022-11-20T00:03:06;5.55;;;4.30;;
13847;SDS011;6994;49.752;6.094;2022-11-20T00:05:33;8.43;;;4.60;;
13847;SDS011;6994;49.752;6.094;2022-11-20T00:08:01;8.02;;;4.78;;
13847;SDS011;6994;49.752;6.094;2022-11-20T00:10:28;8.50;;;6.78;;
13847;SDS011;6994;49.752;6.094;2022-11-20T00:12:55;6.60;;;5.60;;
13847;SDS011;6994;49.752;6.094;2022-11-20T00:15:22;10.63;;;6.50;;
13847;SDS011;6994;49.752;6.094;2022-11-20T00:17:49;7.18;;;5.30;;
13847;SDS011;6994;49.752;6.094;2022-11-20T00:20:17;8.43;;;7.20;;
13847;SDS011;6994;49.752;6.094;2022-11-20T00:22:44;8.60;;;6.72;;
13847;SDS011;6994;49.752;6.094;2022-11-20T00:25:11;9.93;;;7.72;;
13847;SDS011;6994;49.752;6.094;2022-11-20T00:27:38;6.37;;;5.75;;
13847;SDS011;6994;49.752;6.094;2022-11-20T00:30:05;6.57;;;5.22;;
13847;SDS011;6994;49.752;6.094;2022-11-20T00:32:33;6.85;;;4.70;;
13847;SDS011;6994;49.752;6.094;2022-11-20T00:35:00;6.97;;;5.07;;
13847;SDS011;6994;49.752;6.094;2022-11-20T00:37:28;5.87;;;5.12;;
13847;SDS011;6994;49.752;6.094;2022-11-20T00:39:54;6.65;;;5.40;;
13847;SDS011;6994;49.752;6.094;2022-11-20T00:42:22;6.15;;;5.50;;
13847;SDS011;6994;49.752;6.094;2022-11-20T00:44:49;7.35;;;5.97;;
13847;SDS011;6994;49.752;6.094;2022-11-20T00:47:16;7.65;;;5.03;;
13847;SDS011;6994;49.752;6.094;2022-11-20T00:49:43;9.45;;;5.78;;
13847;SDS011;6994;49.752;6.094;2022-11-20T00:52:10;5.25;;;4.75;;
13847;SDS011;6994;49.752;6.094;2022-11-20T00:54:38;6.62;;;4.90;;
13847;SDS011;6994;49.752;6.094;2022-11-20T00:57:06;5.15;;;4.65;;
13847;SDS011;6994;49.752;6.094;2022-11-20T00:59:33;7.80;;;5.00;;
13847;SDS011;6994;49.752;6.094;2022-11-20T01:02:00;7.35;;;5.00;;
13847;SDS011;6994;49.752;6.094;2022-11-20T01:04:27;5.57;;;4.70;;
13847;SDS011;6994;49.752;6.094;2022-11-20T01:06:55;5.68;;;5.10;;
13847;SDS011;6994;49.752;6.094;2022-11-20T01:09:23;6.85;;;4.72;;
13847;SDS011;6994;49.752;6.094;2022-11-20T01:11:51;5.70;;;5.10;;
13847;SDS011;6994;49.752;6.094;2022-11-20T01:14:20;6.05;;;4.62;;
13847;SDS011;6994;49.752;6.094;2022-11-20T01:16:48;5.80;;;5.20;;
13847;SDS011;6994;49.752;6.094;2022-11-20T01:19:16;6.25;;;4.97;;
13847;SDS011;6994;49.752;6.094;2022-11-20T01:21:42;10.23;;;7.55;;
13847;SDS011;6994;49.752;6.094;2022-11-20T01:24:12;11.32;;;6.15;;
13847;SDS011;6994;49.752;6.094;2022-11-20T01:26:39;6.75;;;5.32;;
13847;SDS011;6994;49.752;6.094;2022-11-20T01:29:06;6.45;;;5.85;;
13847;SDS011;6994;49.752;6.094;2022-11-20T01:31:34;8.70;;;5.70;;
13847;SDS011;6994;49.752;6.094;2022-11-20T01:34:01;6.20;;;5.60;;
13847;SDS011;6994;49.752;6.094;2022-11-20T01:36:28;9.48;;;6.30;;
13847;SDS011;6994;49.752;6.094;2022-11-20T01:38:56;9.52;;;6.47;;
13847;SDS011;6994;49.752;6.094;2022-11-20T01:41:22;7.53;;;6.37;;
13847;SDS011;6994;49.752;6.094;2022-11-20T01:44:09;6.32;;;5.65;;
13847;SDS011;6994;49.752;6.094;2022-11-20T01:46:38;7.93;;;5.72;;
13847;SDS011;6994;49.752;6.094;2022-11-20T01:49:11;6.47;;;4.70;;
13847;SDS011;6994;49.752;6.094;2022-11-20T01:51:56;5.78;;;5.20;;
13847;SDS011;6994;49.752;6.094;2022-11-20T01:54:23;6.82;;;5.75;;
13847;SDS011;6994;49.752;6.094;2022-11-20T01:56:47;8.80;;;7.18;;
13847;SDS011;6994;49.752;6.094;2022-11-20T01:59:14;7.07;;;5.05;;
13847;SDS011;6994;49.752;6.094;2022-11-20T02:01:41;5.55;;;4.65;;
13847;SDS011;6994;49.752;6.094;2022-11-20T02:04:08;7.35;;;4.93;;
13847;SDS011;6994;49.752;6.094;2022-11-20T02:06:36;7.20;;;6.53;;
13847;SDS011;6994;49.752;6.094;2022-11-20T02:09:02;9.90;;;6.68;;
13847;SDS011;6994;49.752;6.094;2022-11-20T02:11:30;8.68;;;6.87;;
13847;SDS011;6994;49.752;6.094;2022-11-20T02:13:57;6.25;;;5.57;;
13847;SDS011;6994;49.752;6.094;2022-11-20T02:16:25;6.93;;;5.20;;
13847;SDS011;6994;49.752;6.094;2022-11-20T02:18:59;4.57;;;4.18;;
13847;SDS011;6994;49.752;6.094;2022-11-20T02:24:19;5.25;;;4.00;;
13847;SDS011;6994;49.752;6.094;2022-11-20T02:26:50;5.37;;;3.87;;
13847;SDS011;6994;49.752;6.094;2022-11-20T02:30:09;6.40;;;5.80;;
13847;SDS011;6994;49.752;6.094;2022-11-20T02:32:33;9.85;;;6.40;;
13847;SDS011;6994;49.752;6.094;2022-11-20T02:37:44;5.25;;;4.72;;
13847;SDS011;6994;49.752;6.094;2022-11-20T02:40:11;4.47;;;4.07;;
13847;SDS011;6994;49.752;6.094;2022-11-20T02:42:38;5.15;;;3.83;;
13847;SDS011;6994;49.752;6.094;2022-11-20T02:45:06;6.00;;;4.82;;
13847;SDS011;6994;49.752;6.094;2022-11-20T02:47:33;5.87;;;5.28;;
13847;SDS011;6994;49.752;6.094;2022-11-20T02:50:01;5.20;;;4.20;;
13847;SDS011;6994;49.752;6.094;2022-11-20T02:52:29;4.70;;;4.30;;
13847;SDS011;6994;49.752;6.094;2022-11-20T02:54:57;4.72;;;3.60;;
13847;SDS011;6994;49.752;6.094;2022-11-20T02:57:24;7.50;;;3.67;;
13847;SDS011;6994;49.752;6.094;2022-11-20T02:59:51;3.85;;;3.40;;
13847;SDS011;6994;49.752;6.094;2022-11-20T03:02:18;5.43;;;3.90;;
13847;SDS011;6994;49.752;6.094;2022-11-20T03:04:46;5.00;;;3.35;;
13847;SDS011;6994;49.752;6.094;2022-11-20T03:07:13;3.35;;;3.05;;
13847;SDS011;6994;49.752;6.094;2022-11-20T03:09:40;3.97;;;2.78;;
13847;SDS011;6994;49.752;6.094;2022-11-20T03:12:07;3.40;;;2.90;;
13847;SDS011;6994;49.752;6.094;2022-11-20T03:14:34;4.45;;;3.00;;
13847;SDS011;6994;49.752;6.094;2022-11-20T03:17:02;3.62;;;3.17;;
13847;SDS011;6994;49.752;6.094;2022-11-20T03:19:29;6.20;;;2.90;;
13847;SDS011;6994;49.752;6.094;2022-11-20T03:21:56;4.65;;;2.70;;
13847;SDS011;6994;49.752;6.094;2022-11-20T03:24:23;4.35;;;3.95;;
13847;SDS011;6994;49.752;6.094;2022-11-20T03:26:50;4.47;;;3.70;;
13847;SDS011;6994;49.752;6.094;2022-11-20T03:29:18;4.68;;;3.62;;
13847;SDS011;6994;49.752;6.094;2022-11-20T03:31:45;3.72;;;3.22;;
13847;SDS011;6994;49.752;6.094;2022-11-20T03:34:12;4.72;;;3.15;;
13847;SDS011;6994;49.752;6.094;2022-11-20T03:36:42;6.10;;;3.80;;
13847;SDS011;6994;49.752;6.094;2022-11-20T03:39:06;4.03;;;3.47;;
13847;SDS011;6994;49.752;6.094;2022-11-20T03:41:37;3.55;;;3.25;;
13847;SDS011;6994;49.752;6.094;2022-11-20T03:44:05;4.45;;;3.62;;
13847;SDS011;6994;49.752;6.094;2022-11-20T03:46:31;3.87;;;3.50;;
13847;SDS011;6994;49.752;6.094;2022-11-20T03:48:58;5.07;;;4.57;;
13847;SDS011;6994;49.752;6.094;2022-11-20T03:51:26;6.90;;;4.22;;
13847;SDS011;6994;49.752;6.094;2022-11-20T03:53:53;6.30;;;4.93;;
13847;SDS011;6994;49.752;6.094;2022-11-20T03:56:22;7.25;;;5.10;;
13847;SDS011;6994;49.752;6.094;2022-11-20T03:58:47;8.27;;;7.47;;
13847;SDS011;6994;49.752;6.094;2022-11-20T04:01:16;7.40;;;6.12;;
13847;SDS011;6994;49.752;6.094;2022-11-20T04:03:42;8.50;;;6.22;;
13847;SDS011;6994;49.752;6.094;2022-11-20T04:06:09;6.90;;;6.03;;
13847;SDS011;6994;49.752;6.094;2022-11-20T04:08:36;6.35;;;5.35;;
13847;SDS011;6994;49.752;6.094;2022-11-20T04:11:13;7.70;;;6.95;;
13847;SDS011;6994;49.752;6.094;2022-11-20T04:13:39;7.20;;;5.82;;
13847;SDS011;6994;49.752;6.094;2022-11-20T04:16:06;9.73;;;6.07;;
13847;SDS011;6994;49.752;6.094;2022-11-20T04:18:34;7.57;;;6.30;;
13847;SDS011;6994;49.752;6.094;2022-11-20T04:21:01;6.65;;;5.95;;
13847;SDS011;6994;49.752;6.094;2022-11-20T04:23:29;8.65;;;6.05;;
13847;SDS011;6994;49.752;6.094;2022-11-20T04:26:06;8.05;;;6.05;;
13847;SDS011;6994;49.752;6.094;2022-11-20T04:28:32;7.72;;;6.00;;
13847;SDS011;6994;49.752;6.094;2022-11-20T04:31:03;7.47;;;6.43;;
13847;SDS011;6994;49.752;6.094;2022-11-20T04:33:30;7.90;;;7.10;;
13847;SDS011;6994;49.752;6.094;2022-11-20T04:35:59;7.53;;;6.65;;
13847;SDS011;6994;49.752;6.094;2022-11-20T04:38:24;11.40;;;6.90;;
13847;SDS011;6994;49.752;6.094;2022-11-20T04:40:55;7.35;;;6.65;;
13847;SDS011;6994;49.752;6.094;2022-11-20T04:43:18;7.93;;;7.12;;
13847;SDS011;6994;49.752;6.094;2022-11-20T04:45:50;8.68;;;7.25;;
13847;SDS011;6994;49.752;6.094;2022-11-20T04:48:19;11.57;;;7.25;;
13847;SDS011;6994;49.752;6.094;2022-11-20T04:50:46;7.85;;;7.05;;
13847;SDS011;6994;49.752;6.094;2022-11-20T04:53:14;12.90;;;10.80;;
13847;SDS011;6994;49.752;6.094;2022-11-20T04:55:41;10.63;;;8.25;;
13847;SDS011;6994;49.752;6.094;2022-11-20T04:58:08;10.43;;;8.35;;
13847;SDS011;6994;49.752;6.094;2022-11-20T05:00:35;10.45;;;8.18;;
13847;SDS011;6994;49.752;6.094;2022-11-20T05:03:03;13.82;;;9.45;;
13847;SDS011;6994;49.752;6.094;2022-11-20T05:05:30;11.63;;;8.75;;
13847;SDS011;6994;49.752;6.094;2022-11-20T05:07:58;10.18;;;8.70;;
13847;SDS011;6994;49.752;6.094;2022-11-20T05:10:26;10.38;;;8.15;;
13847;SDS011;6994;49.752;6.094;2022-11-20T05:12:53;9.85;;;8.48;;
13847;SDS011;6994;49.752;6.094;2022-11-20T05:15:20;10.65;;;8.65;;
13847;SDS011;6994;49.752;6.094;2022-11-20T05:17:51;10.00;;;8.05;;
13847;SDS011;6994;49.752;6.094;2022-11-20T05:20:17;11.77;;;8.68;;
13847;SDS011;6994;49.752;6.094;2022-11-20T05:22:44;10.65;;;8.38;;
13847;SDS011;6994;49.752;6.094;2022-11-20T05:25:11;10.95;;;8.35;;
13847;SDS011;6994;49.752;6.094;2022-11-20T05:27:39;12.35;;;10.95;;
13847;SDS011;6994;49.752;6.094;2022-11-20T05:30:06;9.93;;;8.80;;
13847;SDS011;6994;49.752;6.094;2022-11-20T05:32:33;10.50;;;8.48;;
13847;SDS011;6994;49.752;6.094;2022-11-20T05:35:00;9.70;;;8.63;;
13847;SDS011;6994;49.752;6.094;2022-11-20T05:37:28;10.30;;;7.70;;
13847;SDS011;6994;49.752;6.094;2022-11-20T05:39:56;9.88;;;7.93;;
13847;SDS011;6994;49.752;6.094;2022-11-20T05:42:23;11.27;;;9.07;;
13847;SDS011;6994;49.752;6.094;2022-11-20T05:44:59;13.30;;;8.73;;
13847;SDS011;6994;49.752;6.094;2022-11-20T05:47:27;13.40;;;8.80;;
13847;SDS011;6994;49.752;6.094;2022-11-20T05:49:53;12.48;;;8.85;;
13847;SDS011;6994;49.752;6.094;2022-11-20T05:52:21;10.85;;;9.05;;
13847;SDS011;6994;49.752;6.094;2022-11-20T05:54:48;10.15;;;8.43;;
13847;SDS011;6994;49.752;6.094;2022-11-20T05:57:15;11.43;;;9.07;;
13847;SDS011;6994;49.752;6.094;2022-11-20T05:59:42;10.55;;;9.40;;
13847;SDS011;6994;49.752;6.094;2022-11-20T06:02:10;10.52;;;8.90;;
13847;SDS011;6994;49.752;6.094;2022-11-20T06:04:37;11.85;;;8.55;;
13847;SDS011;6994;49.752;6.094;2022-11-20T06:07:05;10.45;;;8.88;;
13847;SDS011;6994;49.752;6.094;2022-11-20T06:09:32;12.77;;;11.30;;
13847;SDS011;6994;49.752;6.094;2022-11-20T06:11:59;10.02;;;8.95;;
13847;SDS011;6994;49.752;6.094;2022-11-20T06:14:26;11.57;;;8.95;;
13847;SDS011;6994;49.752;6.094;2022-11-20T06:16:53;8.77;;;7.72;;
13847;SDS011;6994;49.752;6.094;2022-11-20T06:19:21;13.27;;;11.93;;
13847;SDS011;6994;49.752;6.094;2022-11-20T06:21:48;9.82;;;8.88;;
13847;SDS011;6994;49.752;6.094;2022-11-20T06:24:15;14.18;;;8.75;;
13847;SDS011;6994;49.752;6.094;2022-11-20T06:26:42;10.88;;;8.48;;
13847;SDS011;6994;49.752;6.094;2022-11-20T06:29:10;13.82;;;11.43;;
13847;SDS011;6994;49.752;6.094;2022-11-20T06:31:37;10.07;;;8.60;;
13847;SDS011;6994;49.752;6.094;2022-11-20T06:34:05;12.02;;;10.77;;
13847;SDS011;6994;49.752;6.094;2022-11-20T06:36:32;9.73;;;8.40;;
13847;SDS011;6994;49.752;6.094;2022-11-20T06:39:00;10.98;;;8.65;;
13847;SDS011;6994;49.752;6.094;2022-11-20T06:41:27;12.85;;;11.25;;
13847;SDS011;6994;49.752;6.094;2022-11-20T06:43:54;11.02;;;8.38;;
13847;SDS011;6994;49.752;6.094;2022-11-20T06:46:21;10.45;;;9.43;;
13847;SDS011;6994;49.752;6.094;2022-11-20T06:48:49;10.00;;;8.00;;
13847;SDS011;6994;49.752;6.094;2022-11-20T06:51:16;9.13;;;6.87;;
13847;SDS011;6994;49.752;6.094;2022-11-20T06:53:43;10.05;;;6.87;;
13847;SDS011;6994;49.752;6.094;2022-11-20T06:56:10;10.38;;;7.55;;
13847;SDS011;6994;49.752;6.094;2022-11-20T06:58:37;9.85;;;7.25;;
13847;SDS011;6994;49.752;6.094;2022-11-20T07:01:06;9.38;;;6.75;;
13847;SDS011;6994;49.752;6.094;2022-11-20T07:03:38;10.23;;;7.12;;
13847;SDS011;6994;49.752;6.094;2022-11-20T07:06:05;6.57;;;5.90;;
13847;SDS011;6994;49.752;6.094;2022-11-20T07:08:32;9.05;;;5.85;;
13847;SDS011;6994;49.752;6.094;2022-11-20T07:11:03;8.93;;;6.28;;
13847;SDS011;6994;49.752;6.094;2022-11-20T07:13:29;10.65;;;9.05;;
13847;SDS011;6994;49.752;6.094;2022-11-20T07:16:00;9.63;;;8.15;;
13847;SDS011;6994;49.752;6.094;2022-11-20T07:18:29;9.70;;;8.65;;
13847;SDS011;6994;49.752;6.094;2022-11-20T07:20:59;9.65;;;7.37;;
13847;SDS011;6994;49.752;6.094;2022-11-20T07:23:23;10.40;;;7.00;;
13847;SDS011;6994;49.752;6.094;2022-11-20T07:25:50;10.73;;;7.15;;
13847;SDS011;6994;49.752;6.094;2022-11-20T07:28:18;8.77;;;6.55;;
13847;SDS011;6994;49.752;6.094;2022-11-20T07:30:51;9.82;;;6.75;;
13847;SDS011;6994;49.752;6.094;2022-11-20T07:33:18;8.48;;;6.75;;
13847;SDS011;6994;49.752;6.094;2022-11-20T07:35:45;9.68;;;7.12;;
13847;SDS011;6994;49.752;6.094;2022-11-20T07:38:12;10.38;;;7.40;;
13847;SDS011;6994;49.752;6.094;2022-11-20T07:40:39;9.70;;;6.82;;
13847;SDS011;6994;49.752;6.094;2022-11-20T07:43:07;9.35;;;8.45;;
13847;SDS011;6994;49.752;6.094;2022-11-20T07:45:34;8.90;;;7.07;;
13847;SDS011;6994;49.752;6.094;2022-11-20T07:48:01;12.13;;;7.68;;
13847;SDS011;6994;49.752;6.094;2022-11-20T07:50:28;11.90;;;7.10;;
13847;SDS011;6994;49.752;6.094;2022-11-20T07:53:03;8.30;;;7.37;;
13847;SDS011;6994;49.752;6.094;2022-11-20T07:55:29;8.32;;;6.82;;
13847;SDS011;6994;49.752;6.094;2022-11-20T07:57:56;7.72;;;5.87;;
13847;SDS011;6994;49.752;6.094;2022-11-20T08:00:24;8.98;;;5.85;;
13847;SDS011;6994;49.752;6.094;2022-11-20T08:02:52;5.60;;;4.93;;
13847;SDS011;6994;49.752;6.094;2022-11-20T08:05:19;6.22;;;5.40;;
13847;SDS011;6994;49.752;6.094;2022-11-20T08:07:46;7.47;;;4.80;;
13847;SDS011;6994;49.752;6.094;2022-11-20T08:10:13;5.82;;;4.93;;
13847;SDS011;6994;49.752;6.094;2022-11-20T08:12:44;9.07;;;6.70;;
13847;SDS011;6994;49.752;6.094;2022-11-20T08:15:28;7.28;;;4.60;;
13847;SDS011;6994;49.752;6.094;2022-11-20T08:18:05;4.60;;;4.05;;
13847;SDS011;6994;49.752;6.094;2022-11-20T08:20:32;6.05;;;3.55;;
13847;SDS011;6994;49.752;6.094;2022-11-20T08:22:59;6.60;;;4.37;;
13847;SDS011;6994;49.752;6.094;2022-11-20T08:25:27;3.40;;;2.97;;
13847;SDS011;6994;49.752;6.094;2022-11-20T08:27:53;8.32;;;2.58;;
13847;SDS011;6994;49.752;6.094;2022-11-20T08:30:21;6.57;;;2.35;;
13847;SDS011;6994;49.752;6.094;2022-11-20T08:32:49;4.18;;;2.40;;
13847;SDS011;6994;49.752;6.094;2022-11-20T08:35:17;5.90;;;3.10;;
13847;SDS011;6994;49.752;6.094;2022-11-20T08:37:46;5.75;;;2.92;;
13847;SDS011;6994;49.752;6.094;2022-11-20T08:40:13;4.82;;;3.12;;
13847;SDS011;6994;49.752;6.094;2022-11-20T08:42:47;3.62;;;2.62;;
13847;SDS011;6994;49.752;6.094;2022-11-20T08:45:17;6.85;;;3.35;;
13847;SDS011;6994;49.752;6.094;2022-11-20T08:47:44;4.12;;;2.90;;
13847;SDS011;6994;49.752;6.094;2022-11-20T08:50:11;6.07;;;3.37;;
13847;SDS011;6994;49.752;6.094;2022-11-20T08:52:38;5.72;;;4.62;;
13847;SDS011;6994;49.752;6.094;2022-11-20T08:55:05;4.55;;;3.62;;
13847;SDS011;6994;49.752;6.094;2022-11-20T08:57:36;6.60;;;4.30;;
13847;SDS011;6994;49.752;6.094;2022-11-20T09:00:05;6.43;;;4.03;;
13847;SDS011;6994;49.752;6.094;2022-11-20T09:02:32;7.97;;;3.83;;
13847;SDS011;6994;49.752;6.094;2022-11-20T09:05:00;9.20;;;3.55;;
13847;SDS011;6994;49.752;6.094;2022-11-20T09:07:27;6.82;;;3.70;;
13847;SDS011;6994;49.752;6.094;2022-11-20T09:09:54;6.70;;;3.78;;
13847;SDS011;6994;49.752;6.094;2022-11-20T09:12:21;7.03;;;4.00;;
13847;SDS011;6994;49.752;6.094;2022-11-20T09:14:49;6.95;;;3.80;;
13847;SDS011;6994;49.752;6.094;2022-11-20T09:17:16;6.45;;;3.25;;
13847;SDS011;6994;49.752;6.094;2022-11-20T09:19:44;5.85;;;3.70;;
13847;SDS011;6994;49.752;6.094;2022-11-20T09:22:11;5.90;;;3.33;;
13847;SDS011;6994;49.752;6.094;2022-11-20T09:24:38;4.65;;;3.00;;
13847;SDS011;6994;49.752;6.094;2022-11-20T09:27:05;5.97;;;3.40;;
13847;SDS011;6994;49.752;6.094;2022-11-20T09:29:32;4.82;;;2.70;;
13847;SDS011;6994;49.752;6.094;2022-11-20T09:32:00;6.45;;;2.78;;
13847;SDS011;6994;49.752;6.094;2022-11-20T09:34:28;6.50;;;3.22;;
13847;SDS011;6994;49.752;6.094;2022-11-20T09:36:56;8.50;;;2.95;;
13847;SDS011;6994;49.752;6.094;2022-11-20T09:39:23;4.50;;;2.40;;
13847;SDS011;6994;49.752;6.094;2022-11-20T09:42:04;4.80;;;2.42;;
13847;SDS011;6994;49.752;6.094;2022-11-20T09:44:41;11.52;;;2.70;;
13847;SDS011;6994;49.752;6.094;2022-11-20T09:47:30;4.53;;;2.30;;
13847;SDS011;6994;49.752;6.094;2022-11-20T09:50:05;4.68;;;2.55;;
13847;SDS011;6994;49.752;6.094;2022-11-20T09:54:54;6.53;;;2.92;;
13847;SDS011;6994;49.752;6.094;2022-11-20T09:57:22;5.95;;;2.40;;
13847;SDS011;6994;49.752;6.094;2022-11-20T09:59:52;3.83;;;2.00;;
13847;SDS011;6994;49.752;6.094;2022-11-20T10:05:03;5.25;;;2.10;;
13847;SDS011;6994;49.752;6.094;2022-11-20T10:07:34;3.58;;;2.45;;
13847;SDS011;6994;49.752;6.094;2022-11-20T10:10:01;6.68;;;1.92;;
13847;SDS011;6994;49.752;6.094;2022-11-20T10:15:32;5.95;;;1.87;;
13847;SDS011;6994;49.752;6.094;2022-11-20T10:20:49;5.87;;;1.75;;
13847;SDS011;6994;49.752;6.094;2022-11-20T10:25:55;4.07;;;1.85;;
13847;SDS011;6994;49.752;6.094;2022-11-20T10:31:14;5.15;;;2.50;;
13847;SDS011;6994;49.752;6.094;2022-11-20T10:33:42;4.20;;;2.33;;
13847;SDS011;6994;49.752;6.094;2022-11-20T10:38:40;3.33;;;1.80;;
13847;SDS011;6994;49.752;6.094;2022-11-20T10:41:11;6.30;;;1.58;;
13847;SDS011;6994;49.752;6.094;2022-11-20T10:43:53;4.45;;;2.10;;
13847;SDS011;6994;49.752;6.094;2022-11-20T10:46:20;2.58;;;1.37;;
13847;SDS011;6994;49.752;6.094;2022-11-20T10:48:47;4.55;;;1.60;;
13847;SDS011;6994;49.752;6.094;2022-11-20T10:53:47;3.62;;;1.77;;
13847;SDS011;6994;49.752;6.094;2022-11-20T10:56:21;4.22;;;1.65;;
13847;SDS011;6994;49.752;6.094;2022-11-20T11:01:56;8.00;;;1.85;;
13847;SDS011;6994;49.752;6.094;2022-11-20T11:04:28;4.18;;;1.90;;
13847;SDS011;6994;49.752;6.094;2022-11-20T11:06:51;6.10;;;1.98;;
13847;SDS011;6994;49.752;6.094;2022-11-20T11:09:24;5.40;;;1.80;;
13847;SDS011;6994;49.752;6.094;2022-11-20T11:11:48;5.37;;;2.30;;
13847;SDS011;6994;49.752;6.094;2022-11-20T11:14:15;3.33;;;1.83;;
13847;SDS011;6994;49.752;6.094;2022-11-20T11:16:49;5.82;;;1.80;;
13847;SDS011;6994;49.752;6.094;2022-11-20T11:19:16;3.47;;;1.58;;
13847;SDS011;6994;49.752;6.094;2022-11-20T11:21:48;5.53;;;1.77;;
13847;SDS011;6994;49.752;6.094;2022-11-20T11:24:24;4.18;;;1.87;;
13847;SDS011;6994;49.752;6.094;2022-11-20T11:26:57;5.72;;;1.65;;
13847;SDS011;6994;49.752;6.094;2022-11-20T11:29:26;5.10;;;1.33;;
13847;SDS011;6994;49.752;6.094;2022-11-20T11:32:02;4.78;;;1.23;;
13847;SDS011;6994;49.752;6.094;2022-11-20T11:34:20;2.97;;;1.48;;
13847;SDS011;6994;49.752;6.094;2022-11-20T11:36:55;2.22;;;1.30;;
13847;SDS011;6994;49.752;6.094;2022-11-20T11:39:19;2.28;;;1.15;;
13847;SDS011;6994;49.752;6.094;2022-11-20T11:41:45;3.80;;;1.25;;
13847;SDS011;6994;49.752;6.094;2022-11-20T11:44:21;4.03;;;2.03;;
13847;SDS011;6994;49.752;6.094;2022-11-20T11:47:01;2.97;;;1.37;;
13847;SDS011;6994;49.752;6.094;2022-11-20T11:49:28;2.55;;;1.62;;
13847;SDS011;6994;49.752;6.094;2022-11-20T11:57:22;2.83;;;2.03;;
13847;SDS011;6994;49.752;6.094;2022-11-20T12:00:00;5.75;;;2.40;;
13847;SDS011;6994;49.752;6.094;2022-11-20T12:02:31;3.30;;;1.55;;
13847;SDS011;6994;49.752;6.094;2022-11-20T12:05:05;1.92;;;1.23;;
13847;SDS011;6994;49.752;6.094;2022-11-20T12:07:39;6.97;;;1.73;;
13847;SDS011;6994;49.752;6.094;2022-11-20T12:10:06;6.07;;;1.95;;
13847;SDS011;6994;49.752;6.094;2022-11-20T12:12:41;3.22;;;1.48;;
13847;SDS011;6994;49.752;6.094;2022-11-20T12:15:03;5.05;;;1.70;;
13847;SDS011;6994;49.752;6.094;2022-11-20T12:17:30;6.35;;;1.65;;
13847;SDS011;6994;49.752;6.094;2022-11-20T12:19:57;2.45;;;1.50;;
13847;SDS011;6994;49.752;6.094;2022-11-20T12:22:41;3.95;;;1.42;;
13847;SDS011;6994;49.752;6.094;2022-11-20T12:25:35;2.22;;;1.40;;
13847;SDS011;6994;49.752;6.094;2022-11-20T12:28:07;1.65;;;1.37;;
13847;SDS011;6994;49.752;6.094;2022-11-20T12:30:32;2.83;;;1.50;;
13847;SDS011;6994;49.752;6.094;2022-11-20T12:38:32;3.05;;;1.10;;
13847;SDS011;6994;49.752;6.094;2022-11-20T12:47:34;4.47;;;1.50;;
13847;SDS011;6994;49.752;6.094;2022-11-20T12:49:42;7.40;;;1.37;;
13847;SDS011;6994;49.752;6.094;2022-11-20T12:52:26;8.80;;;1.37;;
13847;SDS011;6994;49.752;6.094;2022-11-20T13:05:31;3.85;;;0.75;;
13847;SDS011;6994;49.752;6.094;2022-11-20T13:08:03;5.60;;;1.42;;
13847;SDS011;6994;49.752;6.094;2022-11-20T13:10:35;3.03;;;1.20;;
13847;SDS011;6994;49.752;6.094;2022-11-20T13:13:02;2.75;;;1.15;;
13847;SDS011;6994;49.752;6.094;2022-11-20T13:15:45;3.15;;;1.10;;
13847;SDS011;6994;49.752;6.094;2022-11-20T13:18:15;3.22;;;1.00;;
13847;SDS011;6994;49.752;6.094;2022-11-20T13:20:43;5.10;;;1.10;;
13847;SDS011;6994;49.752;6.094;2022-11-20T13:23:10;3.40;;;1.48;;
13847;SDS011;6994;49.752;6.094;2022-11-20T13:25:38;1.75;;;1.00;;
13847;SDS011;6994;49.752;6.094;2022-11-20T13:28:27;3.45;;;1.20;;
13847;SDS011;6994;49.752;6.094;2022-11-20T13:30:31;2.30;;;1.30;;
13847;SDS011;6994;49.752;6.094;2022-11-20T13:33:02;2.47;;;1.42;;
13847;SDS011;6994;49.752;6.094;2022-11-20T13:35:32;1.90;;;0.90;;
13847;SDS011;6994;49.752;6.094;2022-11-20T13:38:03;1.10;;;1.00;;
13847;SDS011;6994;49.752;6.094;2022-11-20T13:40:38;1.23;;;0.90;;
13847;SDS011;6994;49.752;6.094;2022-11-20T13:43:14;4.47;;;1.23;;
13847;SDS011;6994;49.752;6.094;2022-11-20T13:46:02;2.30;;;0.98;;
13847;SDS011;6994;49.752;6.094;2022-11-20T13:48:29;3.03;;;1.45;;
13847;SDS011;6994;49.752;6.094;2022-11-20T13:56:19;4.05;;;1.40;;
13847;SDS011;6994;49.752;6.094;2022-11-20T13:59:33;3.03;;;1.40;;
13847;SDS011;6994;49.752;6.094;2022-11-20T14:01:11;5.28;;;1.20;;
13847;SDS011;6994;49.752;6.094;2022-11-20T14:03:37;2.47;;;1.20;;
13847;SDS011;6994;49.752;6.094;2022-11-20T14:06:05;2.10;;;0.98;;
13847;SDS011;6994;49.752;6.094;2022-11-20T14:08:46;3.25;;;1.00;;
13847;SDS011;6994;49.752;6.094;2022-11-20T14:11:18;4.20;;;1.30;;
13847;SDS011;6994;49.752;6.094;2022-11-20T14:13:58;3.97;;;1.40;;
13847;SDS011;6994;49.752;6.094;2022-11-20T14:16:34;2.08;;;1.12;;
13847;SDS011;6994;49.752;6.094;2022-11-20T14:21:49;4.95;;;1.00;;
13847;SDS011;6994;49.752;6.094;2022-11-20T14:24:19;4.95;;;1.12;;
13847;SDS011;6994;49.752;6.094;2022-11-20T14:26:46;2.55;;;1.27;;
13847;SDS011;6994;49.752;6.094;2022-11-20T14:29:13;4.25;;;1.05;;
13847;SDS011;6994;49.752;6.094;2022-11-20T14:31:40;2.45;;;1.05;;
13847;SDS011;6994;49.752;6.094;2022-11-20T14:34:20;4.97;;;1.27;;
13847;SDS011;6994;49.752;6.094;2022-11-20T14:36:47;4.43;;;1.43;;
13847;SDS011;6994;49.752;6.094;2022-11-20T14:39:20;9.05;;;2.05;;
13847;SDS011;6994;49.752;6.094;2022-11-20T14:41:53;2.15;;;1.10;;
13847;SDS011;6994;49.752;6.094;2022-11-20T14:44:19;2.85;;;1.12;;
13847;SDS011;6994;49.752;6.094;2022-11-20T14:46:46;3.87;;;1.60;;
13847;SDS011;6994;49.752;6.094;2022-11-20T14:49:13;4.78;;;1.10;;
13847;SDS011;6994;49.752;6.094;2022-11-20T14:51:40;3.67;;;1.12;;
13847;SDS011;6994;49.752;6.094;2022-11-20T14:54:09;5.00;;;1.00;;
13847;SDS011;6994;49.752;6.094;2022-11-20T14:56:38;4.93;;;1.10;;
13847;SDS011;6994;49.752;6.094;2022-11-20T14:59:06;5.18;;;1.50;;
13847;SDS011;6994;49.752;6.094;2022-11-20T15:01:33;5.25;;;1.08;;
13847;SDS011;6994;49.752;6.094;2022-11-20T15:04:00;3.60;;;1.15;;
13847;SDS011;6994;49.752;6.094;2022-11-20T15:06:27;5.20;;;1.65;;
13847;SDS011;6994;49.752;6.094;2022-11-20T15:08:54;3.20;;;1.17;;
13847;SDS011;6994;49.752;6.094;2022-11-20T15:11:25;2.20;;;1.23;;
13847;SDS011;6994;49.752;6.094;2022-11-20T15:13:49;1.67;;;0.73;;
13847;SDS011;6994;49.752;6.094;2022-11-20T15:16:19;3.78;;;1.40;;
13847;SDS011;6994;49.752;6.094;2022-11-20T15:18:46;3.97;;;1.17;;
13847;SDS011;6994;49.752;6.094;2022-11-20T15:21:14;6.12;;;1.80;;
13847;SDS011;6994;49.752;6.094;2022-11-20T15:23:41;3.85;;;1.62;;
13847;SDS011;6994;49.752;6.094;2022-11-20T15:26:08;3.55;;;1.73;;
13847;SDS011;6994;49.752;6.094;2022-11-20T15:28:41;2.28;;;1.37;;
13847;SDS011;6994;49.752;6.094;2022-11-20T15:31:15;3.70;;;1.42;;
13847;SDS011;6994;49.752;6.094;2022-11-20T15:33:41;4.20;;;1.42;;
13847;SDS011;6994;49.752;6.094;2022-11-20T15:36:08;1.70;;;1.08;;
13847;SDS011;6994;49.752;6.094;2022-11-20T15:38:35;4.30;;;1.10;;
13847;SDS011;6994;49.752;6.094;2022-11-20T15:41:02;2.22;;;1.10;;
13847;SDS011;6994;49.752;6.094;2022-11-20T15:43:30;3.10;;;1.00;;
13847;SDS011;6994;49.752;6.094;2022-11-20T15:45:59;4.12;;;1.50;;
13847;SDS011;6994;49.752;6.094;2022-11-20T15:48:28;3.78;;;1.40;;
13847;SDS011;6994;49.752;6.094;2022-11-20T15:50:56;1.40;;;0.90;;
13847;SDS011;6994;49.752;6.094;2022-11-20T15:53:30;2.17;;;0.80;;
13847;SDS011;6994;49.752;6.094;2022-11-20T15:55:57;1.50;;;0.98;;
13847;SDS011;6994;49.752;6.094;2022-11-20T15:58:24;5.18;;;1.27;;
13847;SDS011;6994;49.752;6.094;2022-11-20T16:00:51;4.97;;;1.60;;
13847;SDS011;6994;49.752;6.094;2022-11-20T16:03:19;1.00;;;0.80;;
13847;SDS011;6994;49.752;6.094;2022-11-20T16:05:46;1.45;;;0.75;;
13847;SDS011;6994;49.752;6.094;2022-11-20T16:08:13;2.10;;;1.62;;
13847;SDS011;6994;49.752;6.094;2022-11-20T16:10:40;2.42;;;1.23;;
13847;SDS011;6994;49.752;6.094;2022-11-20T16:13:14;2.17;;;1.10;;